createdAt,value
2022-09-20T00:01:41.636Z,9.06
2022-09-20T00:04:09.918Z,9.05
2022-09-20T00:06:38.378Z,9.05
2022-09-20T00:09:06.755Z,9.05
2022-09-20T00:11:36.033Z,9.03
2022-09-20T00:14:08.922Z,9.04
2022-09-20T00:16:40.500Z,9.01
2022-09-20T00:19:10.223Z,9.03
2022-09-20T00:21:38.566Z,9.02
2022-09-20T00:24:07.003Z,9.03
2022-09-20T00:26:35.532Z,9.03
2022-09-20T00:29:04.563Z,9.02
2022-09-20T00:31:32.719Z,9.00
2022-09-20T00:34:19.550Z,9.00
2022-09-20T00:36:47.758Z,9.02
2022-09-20T00:39:16.877Z,9.03
2022-09-20T00:41:45.173Z,9.03
2022-09-20T00:44:47.762Z,9.06
2022-09-20T00:47:42.641Z,9.09
2022-09-20T00:50:38.259Z,9.10
2022-09-20T00:53:24.783Z,9.11
2022-09-20T00:56:17.511Z,9.11
2022-09-20T00:58:54.861Z,9.10
2022-09-20T01:05:55.004Z,9.10
2022-09-20T01:08:25.356Z,9.09
2022-09-20T01:10:53.912Z,9.10
2022-09-20T01:13:22.035Z,9.08
2022-09-20T01:15:51.502Z,9.06
2022-09-20T01:18:21.043Z,9.07
2022-09-20T01:20:50.578Z,9.05
2022-09-20T01:23:24.645Z,9.06
2022-09-20T01:26:17.131Z,9.08
2022-09-20T01:28:48.163Z,9.09
2022-09-20T01:31:25.729Z,9.09
2022-09-20T01:34:08.647Z,9.09
2022-09-20T01:36:47.681Z,9.10
2022-09-20T01:39:22.604Z,9.08
2022-09-20T01:41:59.272Z,9.05
2022-09-20T01:45:04.292Z,9.04
2022-09-20T01:47:47.761Z,9.07
2022-09-20T01:50:42.068Z,9.08
2022-09-20T01:53:19.482Z,9.08
2022-09-20T01:56:28.585Z,9.08
2022-09-20T01:59:30.872Z,9.07
2022-09-20T02:02:02.187Z,9.06
2022-09-20T02:04:36.639Z,9.08
2022-09-20T02:07:23.381Z,9.05
2022-09-20T02:10:06.476Z,9.02
2022-09-20T02:12:57.059Z,9.01
2022-09-20T02:15:55.042Z,9.01
2022-09-20T02:18:35.479Z,9.00
2022-09-20T02:21:19.087Z,9.00
2022-09-20T02:23:47.193Z,8.97
2022-09-20T02:26:49.966Z,8.96
2022-09-20T02:29:20.850Z,9.00
2022-09-20T02:32:07.472Z,9.02
2022-09-20T02:34:46.938Z,9.02
2022-09-20T02:38:04.679Z,9.06
2022-09-20T02:41:09.901Z,9.05
2022-09-20T02:44:07.906Z,9.07
2022-09-20T02:46:41.816Z,9.08
2022-09-20T02:49:30.251Z,9.10
2022-09-20T02:52:07.382Z,9.11
2022-09-20T02:54:51.974Z,9.11
2022-09-20T02:57:41.859Z,9.10
2022-09-20T03:00:19.616Z,9.11
2022-09-20T03:02:56.335Z,9.10
2022-09-20T03:05:33.179Z,9.09
2022-09-20T03:08:40.067Z,9.08
2022-09-20T03:11:30.942Z,9.09
2022-09-20T03:14:14.854Z,9.09
2022-09-20T03:17:21.029Z,9.12
2022-09-20T03:20:20.675Z,9.17
2022-09-20T03:22:59.249Z,9.20
2022-09-20T03:25:46.015Z,9.19
2022-09-20T03:28:42.913Z,9.19
2022-09-20T03:31:35.945Z,9.15
2022-09-20T03:34:29.123Z,9.12
2022-09-20T03:37:09.835Z,9.10
2022-09-20T03:40:04.711Z,9.09
2022-09-20T03:42:33.123Z,9.05
2022-09-20T03:45:19.967Z,9.05
2022-09-20T03:47:59.891Z,9.04
2022-09-20T03:50:46.774Z,9.07
2022-09-20T03:53:28.349Z,9.08
2022-09-20T03:56:19.391Z,9.10
2022-09-20T03:58:53.458Z,9.12
2022-09-20T04:01:31.297Z,9.11
2022-09-20T04:04:19.975Z,9.09
2022-09-20T04:07:28.424Z,9.09
2022-09-20T04:10:06.890Z,9.11
2022-09-20T04:12:49.142Z,9.11
2022-09-20T04:15:42.027Z,9.11
2022-09-20T04:18:31.407Z,9.10
2022-09-20T04:21:02.265Z,9.07
2022-09-20T04:23:42.366Z,9.07
2022-09-20T04:26:10.567Z,9.09
2022-09-20T04:28:49.224Z,9.10
2022-09-20T04:31:41.455Z,9.12
2022-09-20T04:34:18.294Z,9.11
2022-09-20T04:37:02.848Z,9.13
2022-09-20T04:39:52.764Z,9.16
2022-09-20T04:42:22.179Z,9.19
2022-09-20T04:45:08.204Z,9.19
2022-09-20T04:47:42.532Z,9.20
2022-09-20T04:50:29.637Z,9.20
2022-09-20T04:53:22.175Z,9.19
2022-09-20T04:55:54.712Z,9.19
2022-09-20T04:58:38.184Z,9.19
2022-09-20T05:01:17.051Z,9.19
2022-09-20T05:04:13.201Z,9.20
2022-09-20T05:07:18.395Z,9.24
2022-09-20T05:10:17.743Z,9.28
2022-09-20T05:12:58.174Z,9.31
2022-09-20T05:15:52.974Z,9.31
2022-09-20T05:18:38.843Z,9.32
2022-09-20T05:21:43.723Z,9.34
2022-09-20T05:24:20.251Z,9.34
2022-09-20T05:27:42.732Z,9.35
2022-09-20T05:30:23.266Z,9.33
2022-09-20T05:33:22.343Z,9.34
2022-09-20T05:36:34.371Z,9.36
2022-09-20T05:39:11.712Z,9.37
2022-09-20T05:42:01.822Z,9.40
2022-09-20T05:44:44.658Z,9.45
2022-09-20T05:47:24.598Z,9.47
2022-09-20T05:50:00.624Z,9.49
2022-09-20T05:52:29.083Z,9.52
2022-09-20T05:55:16.467Z,9.54
2022-09-20T05:57:56.653Z,9.59
2022-09-20T06:00:31.484Z,9.61
2022-09-20T06:03:14.255Z,9.62
2022-09-20T06:06:13.252Z,9.67
2022-09-20T06:09:00.341Z,9.72
2022-09-20T06:12:06.555Z,9.78
2022-09-20T06:14:54.958Z,9.85
2022-09-20T06:17:24.282Z,9.90
2022-09-20T06:20:34.439Z,9.90
2022-09-20T06:23:05.635Z,9.88
2022-09-20T06:25:54.076Z,9.89
2022-09-20T06:28:31.207Z,9.91
2022-09-20T06:30:59.837Z,9.91
2022-09-20T06:33:29.455Z,9.92
2022-09-20T06:36:21.357Z,9.99
2022-09-20T06:39:51.804Z,10.06
2022-09-20T06:42:22.443Z,10.08
2022-09-20T06:44:52.615Z,10.12
2022-09-20T06:47:21.938Z,10.14
2022-09-20T06:49:50.510Z,10.17
2022-09-20T06:52:21.250Z,10.20
2022-09-20T06:54:56.030Z,10.22
2022-09-20T06:57:32.574Z,10.23
2022-09-20T07:00:01.052Z,10.21
2022-09-20T07:02:29.333Z,10.20
2022-09-20T07:04:59.319Z,10.25
2022-09-20T07:07:27.747Z,10.25
2022-09-20T07:09:55.871Z,10.26
2022-09-20T07:12:24.810Z,10.29
2022-09-20T07:14:53.375Z,10.37
2022-09-20T07:17:22.429Z,10.48
2022-09-20T07:19:50.451Z,10.55
2022-09-20T07:22:18.898Z,10.59
2022-09-20T07:24:48.323Z,10.64
2022-09-20T07:27:16.756Z,10.71
2022-09-20T07:29:46.334Z,10.73
2022-09-20T07:32:15.544Z,10.78
2022-09-20T07:34:43.557Z,10.85
2022-09-20T07:37:11.837Z,10.88
2022-09-20T07:39:39.948Z,10.82
2022-09-20T07:42:08.272Z,10.76
2022-09-20T07:44:36.689Z,10.70
2022-09-20T07:47:06.413Z,10.64
2022-09-20T07:49:34.500Z,10.62
2022-09-20T07:52:03.726Z,10.60
2022-09-20T07:54:32.126Z,10.59
2022-09-20T07:57:00.422Z,10.54
2022-09-20T07:59:28.886Z,10.57
2022-09-20T08:01:58.978Z,10.59
2022-09-20T08:04:27.515Z,10.65
2022-09-20T08:06:57.179Z,10.78
2022-09-20T08:09:25.420Z,10.91
2022-09-20T08:11:53.642Z,10.99
2022-09-20T08:14:22.436Z,11.05
2022-09-20T08:16:52.215Z,11.15
2022-09-20T08:19:23.942Z,11.24
2022-09-20T08:21:54.020Z,11.35
2022-09-20T08:24:22.407Z,11.43
2022-09-20T08:26:50.664Z,11.50
2022-09-20T08:29:18.915Z,11.53
2022-09-20T08:31:48.192Z,11.53
2022-09-20T08:34:19.411Z,11.43
2022-09-20T08:36:47.780Z,11.39
2022-09-20T08:42:33.892Z,11.42
2022-09-20T08:45:22.223Z,11.43
2022-09-20T08:47:58.868Z,11.45
2022-09-20T08:50:28.244Z,11.42
2022-09-20T08:53:00.760Z,11.40
2022-09-20T08:55:39.981Z,11.44
2022-09-20T08:58:11.937Z,11.44
2022-09-20T09:00:43.525Z,11.41
2022-09-20T09:03:13.714Z,11.35
2022-09-20T09:05:47.989Z,11.31
2022-09-20T09:08:25.721Z,11.32
2022-09-20T09:11:08.570Z,11.37
2022-09-20T09:13:54.755Z,11.41
2022-09-20T09:16:33.668Z,11.36
2022-09-20T09:19:26.339Z,11.39
2022-09-20T09:22:02.827Z,11.58
2022-09-20T09:24:31.883Z,11.79
2022-09-20T09:27:19.293Z,12.00
2022-09-20T09:29:55.504Z,12.14
2022-09-20T09:32:26.617Z,12.15
2022-09-20T09:34:57.593Z,12.13
2022-09-20T09:37:30.569Z,12.13
2022-09-20T09:40:17.705Z,12.14
2022-09-20T09:42:57.572Z,12.22
2022-09-20T09:45:38.835Z,12.40
2022-09-20T09:48:25.365Z,12.54
2022-09-20T09:51:15.533Z,12.70
2022-09-20T09:53:46.056Z,12.78
2022-09-20T09:56:32.451Z,12.78
2022-09-20T09:59:10.716Z,12.77
2022-09-20T10:02:06.728Z,12.78
2022-09-20T10:04:47.847Z,12.88
2022-09-20T10:07:25.612Z,12.96
2022-09-20T10:09:56.417Z,12.93
2022-09-20T10:13:21.880Z,12.86
2022-09-20T10:16:02.228Z,12.76
2022-09-20T10:18:36.492Z,12.78
2022-09-20T10:21:25.115Z,12.82
2022-09-20T10:24:21.113Z,12.83
2022-09-20T10:26:58.210Z,12.77
2022-09-20T10:29:53.617Z,12.73
2022-09-20T10:32:39.631Z,12.75
2022-09-20T10:35:16.220Z,12.73
2022-09-20T10:38:11.770Z,12.78
2022-09-20T10:41:13.772Z,12.77
2022-09-20T10:43:48.070Z,12.77
2022-09-20T10:46:34.734Z,12.75
2022-09-20T10:49:04.998Z,12.70
2022-09-20T10:51:44.694Z,12.60
2022-09-20T10:54:33.875Z,12.50
2022-09-20T10:57:46.807Z,12.36
2022-09-20T11:00:33.502Z,12.30
2022-09-20T11:03:56.103Z,12.35
2022-09-20T11:06:43.670Z,12.34
2022-09-20T11:09:18.518Z,12.33
2022-09-20T11:11:50.689Z,12.30
2022-09-20T11:14:26.343Z,12.27
2022-09-20T11:17:26.541Z,12.24
2022-09-20T11:19:56.557Z,12.29
2022-09-20T11:22:33.072Z,12.42
2022-09-20T11:25:29.276Z,12.54
2022-09-20T11:28:07.889Z,12.64
2022-09-20T11:30:44.746Z,12.74
2022-09-20T11:33:22.731Z,12.87
2022-09-20T11:35:55.970Z,13.07
2022-09-20T11:38:43.869Z,13.26
2022-09-20T11:41:19.865Z,13.35
2022-09-20T11:43:49.436Z,13.35
2022-09-20T11:46:45.164Z,13.38
2022-09-20T11:49:27.009Z,13.50
2022-09-20T11:52:13.645Z,13.53
2022-09-20T11:55:11.314Z,13.59
2022-09-20T11:57:42.167Z,13.78
2022-09-20T12:00:11.018Z,13.91
2022-09-20T12:02:53.012Z,14.07
2022-09-20T12:05:29.901Z,14.20
2022-09-20T12:08:01.664Z,14.21
2022-09-20T12:10:35.265Z,14.03
2022-09-20T12:13:06.805Z,13.76
2022-09-20T12:15:39.186Z,13.57
2022-09-20T12:18:29.300Z,13.45
2022-09-20T12:21:00.186Z,13.46
2022-09-20T12:23:38.302Z,13.50
2022-09-20T12:26:14.130Z,13.55
2022-09-20T12:29:02.256Z,13.60
2022-09-20T12:31:32.303Z,13.70
2022-09-20T12:34:16.172Z,13.70
2022-09-20T12:36:56.080Z,13.66
2022-09-20T12:39:38.982Z,13.57
2022-09-20T12:42:28.949Z,13.54
2022-09-20T12:45:17.788Z,13.50
2022-09-20T12:47:55.683Z,13.46
2022-09-20T12:50:42.969Z,13.47
2022-09-20T12:53:16.829Z,13.48
2022-09-20T12:56:08.114Z,13.47
2022-09-20T12:58:36.051Z,13.52
2022-09-20T13:01:04.250Z,13.44
2022-09-20T13:03:36.528Z,13.25
2022-09-20T13:06:08.844Z,13.19
2022-09-20T13:08:48.581Z,13.21
2022-09-20T13:11:34.992Z,13.40
2022-09-20T13:14:06.595Z,13.58
2022-09-20T13:16:56.636Z,13.76
2022-09-20T13:19:32.572Z,13.86
2022-09-20T13:22:00.766Z,13.95
2022-09-20T13:24:35.814Z,13.97
2022-09-20T13:27:09.548Z,14.01
2022-09-20T13:29:43.827Z,14.10
2022-09-20T13:32:32.276Z,14.15
2022-09-20T13:35:12.740Z,14.03
2022-09-20T13:37:52.670Z,13.91
2022-09-20T13:40:30.616Z,13.82
2022-09-20T13:43:22.245Z,13.72
2022-09-20T13:45:55.816Z,13.56
2022-09-20T13:48:30.437Z,13.44
2022-09-20T13:50:59.271Z,13.40
2022-09-20T13:53:40.953Z,13.36
2022-09-20T13:56:16.848Z,13.31
2022-09-20T13:58:46.600Z,13.33
2022-09-20T14:01:32.632Z,13.38
2022-09-20T14:04:08.202Z,13.47
2022-09-20T14:06:36.953Z,13.62
2022-09-20T14:09:11.188Z,13.77
2022-09-20T14:11:41.041Z,13.88
2022-09-20T14:14:11.206Z,14.02
2022-09-20T14:16:45.354Z,14.14
2022-09-20T14:19:20.375Z,14.22
2022-09-20T14:21:50.081Z,14.24
2022-09-20T14:24:18.091Z,14.27
2022-09-20T14:27:20.749Z,14.27
2022-09-20T14:29:53.546Z,14.24
2022-09-20T14:32:48.739Z,14.17
2022-09-20T14:35:21.946Z,14.11
2022-09-20T14:37:52.279Z,14.10
2022-09-20T14:40:28.042Z,14.10
2022-09-20T14:43:02.602Z,14.09
2022-09-20T14:45:33.661Z,14.12
2022-09-20T14:48:06.886Z,14.08
2022-09-20T14:50:44.899Z,13.96
2022-09-20T14:53:18.901Z,13.85
2022-09-20T14:56:22.575Z,13.75
2022-09-20T14:59:26.126Z,13.61
2022-09-20T15:02:03.440Z,13.53
2022-09-20T15:04:33.071Z,13.48
2022-09-20T15:07:03.738Z,13.47
2022-09-20T15:09:32.472Z,13.44
2022-09-20T15:12:06.194Z,13.44
2022-09-20T15:14:37.779Z,13.43
2022-09-20T15:17:06.979Z,13.38
2022-09-20T15:19:35.243Z,13.35
2022-09-20T15:22:03.366Z,13.32
2022-09-20T15:24:31.416Z,13.25
2022-09-20T15:26:59.901Z,13.20
2022-09-20T15:29:28.245Z,13.18
2022-09-20T15:31:56.991Z,13.15
2022-09-20T15:34:25.579Z,13.11
2022-09-20T15:36:54.772Z,13.08
2022-09-20T15:39:23.786Z,13.05
2022-09-20T15:41:53.411Z,13.03
2022-09-20T15:44:21.661Z,13.02
2022-09-20T15:46:51.432Z,13.00
2022-09-20T15:49:20.855Z,12.99
2022-09-20T15:51:48.977Z,12.98
2022-09-20T15:54:17.221Z,12.98
2022-09-20T15:56:45.523Z,12.98
2022-09-20T15:59:14.746Z,12.96
2022-09-20T16:01:44.991Z,12.93
2022-09-20T16:04:19.458Z,12.86
2022-09-20T16:06:50.135Z,12.78
2022-09-20T16:09:20.381Z,12.70
2022-09-20T16:11:49.171Z,12.59
2022-09-20T16:14:17.269Z,12.49
2022-09-20T16:16:46.051Z,12.42
2022-09-20T16:19:24.985Z,12.36
2022-09-20T16:21:58.582Z,12.26
2022-09-20T16:24:30.188Z,12.18
2022-09-20T16:26:59.220Z,12.14
2022-09-20T16:29:29.490Z,12.10
2022-09-20T16:31:59.767Z,12.06
2022-09-20T16:34:32.834Z,12.00
2022-09-20T16:37:17.103Z,11.95
2022-09-20T16:39:45.392Z,11.92
2022-09-20T16:42:13.677Z,11.90
2022-09-20T16:44:43.136Z,11.89
2022-09-20T16:47:22.416Z,11.90
2022-09-20T16:49:53.872Z,11.89
2022-09-20T16:52:22.410Z,11.86
2022-09-20T16:54:50.609Z,11.84
2022-09-20T16:57:19.056Z,11.81
2022-09-20T16:59:48.024Z,11.79
2022-09-20T17:02:16.318Z,11.76
2022-09-20T17:04:44.446Z,11.72
2022-09-20T17:07:12.665Z,11.67
2022-09-20T17:09:40.874Z,11.62
2022-09-20T17:12:09.679Z,11.56
2022-09-20T17:14:38.206Z,11.53
2022-09-20T17:17:06.508Z,11.50
2022-09-20T17:19:34.630Z,11.43
2022-09-20T17:22:02.936Z,11.38
2022-09-20T17:24:31.416Z,11.31
2022-09-20T17:27:01.704Z,11.25
2022-09-20T17:29:29.993Z,11.18
2022-09-20T17:32:00.905Z,11.08
2022-09-20T17:34:29.538Z,11.00
2022-09-20T17:36:57.992Z,10.89
2022-09-20T17:39:26.187Z,10.83
2022-09-20T17:41:54.340Z,10.79
2022-09-20T17:44:22.830Z,10.74
2022-09-20T17:46:54.241Z,10.69
2022-09-20T17:49:23.833Z,10.64
2022-09-20T17:51:54.801Z,10.60
2022-09-20T17:54:24.599Z,10.56
2022-09-20T17:56:56.186Z,10.53
2022-09-20T17:59:24.871Z,10.49
2022-09-20T18:01:54.517Z,10.46
2022-09-20T18:04:25.317Z,10.41
2022-09-20T18:06:55.123Z,10.35
2022-09-20T18:09:25.641Z,10.30
2022-09-20T18:11:55.909Z,10.26
2022-09-20T18:14:27.542Z,10.21
2022-09-20T18:17:01.379Z,10.14
2022-09-20T18:19:33.571Z,10.08
2022-09-20T18:22:02.791Z,10.04
2022-09-20T18:24:48.369Z,10.00
2022-09-20T18:27:16.878Z,9.92
2022-09-20T18:29:45.158Z,9.91
2022-09-20T18:32:13.198Z,9.87
2022-09-20T18:34:41.584Z,9.83
2022-09-20T18:37:13.944Z,9.78
2022-09-20T18:39:43.347Z,9.75
2022-09-20T18:42:11.653Z,9.71
2022-09-20T18:44:43.248Z,9.68
2022-09-20T18:47:12.122Z,9.62
2022-09-20T18:49:40.332Z,9.58
2022-09-20T18:52:10.914Z,9.53
2022-09-20T18:54:40.608Z,9.47
2022-09-20T18:57:10.332Z,9.41
2022-09-20T18:59:39.034Z,9.33
2022-09-20T19:02:24.262Z,9.28
2022-09-20T19:05:16.818Z,9.22
2022-09-20T19:07:57.024Z,9.14
2022-09-20T19:10:33.786Z,9.04
2022-09-20T19:13:29.072Z,8.95
2022-09-20T19:16:06.055Z,8.88
2022-09-20T19:19:11.786Z,8.76
2022-09-20T19:21:57.900Z,8.69
2022-09-20T19:24:38.778Z,8.67
2022-09-20T19:27:11.315Z,8.65
2022-09-20T19:29:41.158Z,8.64
2022-09-20T19:32:16.501Z,8.59
2022-09-20T19:34:45.807Z,8.47
2022-09-20T19:37:35.237Z,8.44
2022-09-20T19:40:38.716Z,8.41
2022-09-20T19:43:15.876Z,8.39
2022-09-20T19:45:47.154Z,8.38
2022-09-20T19:48:17.430Z,8.40
2022-09-20T19:50:49.806Z,8.44
2022-09-20T19:53:22.357Z,8.51
2022-09-20T19:55:55.632Z,8.55
2022-09-20T19:58:24.016Z,8.57
2022-09-20T20:00:53.050Z,8.61
2022-09-20T20:03:23.887Z,8.62
2022-09-20T20:06:08.530Z,8.63
2022-09-20T20:08:42.609Z,8.60
2022-09-20T20:11:40.624Z,8.61
2022-09-20T20:14:24.078Z,8.63
2022-09-20T20:17:02.854Z,8.63
2022-09-20T20:19:41.376Z,8.64
2022-09-20T20:22:28.437Z,8.64
2022-09-20T20:24:57.966Z,8.63
2022-09-20T20:27:31.342Z,8.64
2022-09-20T20:29:59.993Z,8.62
2022-09-20T20:32:28.466Z,8.61
2022-09-20T20:34:56.872Z,8.62
2022-09-20T20:37:28.142Z,8.59
2022-09-20T20:39:56.289Z,8.58
2022-09-20T20:42:24.561Z,8.56
2022-09-20T20:44:52.875Z,8.51
2022-09-20T20:47:21.381Z,8.48
2022-09-20T20:49:52.952Z,8.50
2022-09-20T20:52:21.259Z,8.48
2022-09-20T20:54:49.353Z,8.47
2022-09-20T20:57:19.034Z,8.46
2022-09-20T20:59:47.416Z,8.46
2022-09-20T21:02:15.729Z,8.47
2022-09-20T21:04:43.951Z,8.46
2022-09-20T21:07:16.764Z,8.44
2022-09-20T21:09:46.277Z,8.40
2022-09-20T21:12:14.687Z,8.32
2022-09-20T21:14:44.860Z,8.28
2022-09-20T21:17:12.986Z,8.25
2022-09-20T21:19:41.186Z,8.21
2022-09-20T21:22:09.331Z,8.20
2022-09-20T21:24:37.349Z,8.16
2022-09-20T21:27:06.005Z,8.11
2022-09-20T21:29:34.987Z,8.10
2022-09-20T21:32:03.070Z,8.07
2022-09-20T21:34:31.042Z,8.06
2022-09-20T21:37:00.353Z,8.04
2022-09-20T21:39:28.309Z,8.03
2022-09-20T21:41:57.533Z,8.03
2022-09-20T21:44:25.722Z,8.05
2022-09-20T21:46:53.780Z,8.06
2022-09-20T21:49:21.919Z,8.09
2022-09-20T21:51:52.096Z,8.11
2022-09-20T21:54:20.414Z,8.13
2022-09-20T21:56:49.981Z,8.16
2022-09-20T21:59:18.862Z,8.20
2022-09-20T22:01:47.211Z,8.23
2022-09-20T22:04:15.721Z,8.25
2022-09-20T22:06:46.513Z,8.29
2022-09-20T22:09:17.967Z,8.35
2022-09-20T22:11:48.739Z,8.38
2022-09-20T22:14:19.746Z,8.43
2022-09-20T22:16:48.921Z,8.45
2022-09-20T22:19:18.587Z,8.46
2022-09-20T22:21:48.830Z,8.43
2022-09-20T22:24:17.778Z,8.39
2022-09-20T22:26:49.053Z,8.34
2022-09-20T22:29:18.475Z,8.29
2022-09-20T22:31:50.642Z,8.26
2022-09-20T22:34:21.548Z,8.24
2022-09-20T22:36:49.956Z,8.23
2022-09-20T22:39:18.499Z,8.22
2022-09-20T22:41:50.929Z,8.20
2022-09-20T22:44:20.286Z,8.14
2022-09-20T22:46:48.317Z,8.12
2022-09-20T22:49:16.705Z,8.10
2022-09-20T22:51:45.083Z,8.08
2022-09-20T22:54:13.406Z,8.08
2022-09-20T22:56:42.855Z,8.07
2022-09-20T22:59:15.879Z,8.07
2022-09-20T23:01:46.049Z,8.08
2022-09-20T23:04:20.145Z,8.08
2022-09-20T23:06:54.560Z,8.08
2022-09-20T23:09:25.675Z,8.07
2022-09-20T23:11:54.256Z,8.05
2022-09-20T23:14:23.223Z,8.04
2022-09-20T23:16:51.935Z,8.05
2022-09-20T23:19:20.477Z,8.04
2022-09-20T23:21:48.528Z,8.03
2022-09-20T23:24:17.616Z,8.02
2022-09-20T23:26:45.881Z,8.00
2022-09-20T23:29:17.591Z,7.99
2022-09-20T23:31:47.467Z,7.98
2022-09-20T23:34:17.433Z,7.95
2022-09-20T23:36:46.192Z,7.93
2022-09-20T23:39:17.717Z,7.87
2022-09-20T23:41:50.579Z,7.82
2022-09-20T23:44:20.460Z,7.77
2022-09-20T23:46:48.776Z,7.72
2022-09-20T23:49:17.002Z,7.69
2022-09-20T23:51:45.649Z,7.65
2022-09-20T23:54:13.706Z,7.60
2022-09-20T23:56:42.815Z,7.58
2022-09-20T23:59:11.274Z,7.55
